Time;durP1;ratioP1;P1;durP2;ratioP2;P2;SDS_P1;SDS_P2;PMS_P1;PMS_P2;Temp;Humidity;BMP_temperature;BMP_pressure;BME280_temperature;BME280_humidity;BME280_pressure;Samples;Min_cycle;Max_cycle;Signal;HPM_P1;HPM_P2
2024/01/08 00:02:10;;;;;;;243.13;33.90;;;;;;;;;;5020365;28;20708;-50
2024/01/08 00:04:36;;;;;;;231.10;33.03;;;;;;;;;;5038939;28;20222;-50
2024/01/08 00:07:02;;;;;;;210.10;29.13;;;;;;;;;;5033497;28;20212;-49
2024/01/08 00:09:28;;;;;;;260.63;37.03;;;;;;;;;;5035231;28;20211;-50
2024/01/08 00:11:54;;;;;;;265.40;37.20;;;;;;;;;;5036874;28;20508;-50
2024/01/08 00:14:20;;;;;;;281.20;39.13;;;;;;;;;;5031069;28;20973;-49
2024/01/08 00:16:46;;;;;;;281.37;40.03;;;;;;;;;;5034674;28;20461;-50
2024/01/08 00:19:12;;;;;;;233.60;33.63;;;;;;;;;;5038427;28;20697;-49
2024/01/08 00:21:38;;;;;;;188.57;27.20;;;;;;;;;;5033350;28;20253;-50
2024/01/08 00:24:04;;;;;;;199.80;28.07;;;;;;;;;;5039022;28;20230;-50
2024/01/08 00:26:31;;;;;;;192.50;25.97;;;;;;;;;;5019066;28;20808;-50
2024/01/08 00:28:58;;;;;;;317.20;44.67;;;;;;;;;;5030405;28;20266;-49
2024/01/08 00:31:24;;;;;;;279.97;38.17;;;;;;;;;;5027489;28;20720;-50
2024/01/08 00:33:50;;;;;;;253.00;34.57;;;;;;;;;;5025374;28;20242;-50
2024/01/08 00:36:16;;;;;;;243.87;34.17;;;;;;;;;;5029292;28;20204;-50
2024/01/08 00:38:42;;;;;;;226.97;30.80;;;;;;;;;;5032408;28;20230;-50
2024/01/08 00:41:08;;;;;;;206.07;28.40;;;;;;;;;;5029174;28;20240;-50
2024/01/08 00:43:34;;;;;;;254.23;35.93;;;;;;;;;;5029551;28;20511;-50
2024/01/08 00:46:00;;;;;;;181.03;24.43;;;;;;;;;;5028573;28;20227;-50
2024/01/08 00:48:26;;;;;;;260.53;36.67;;;;;;;;;;5035509;28;20567;-50
2024/01/08 00:50:52;;;;;;;280.40;40.10;;;;;;;;;;5032851;28;20246;-50
2024/01/08 00:53:18;;;;;;;246.17;33.77;;;;;;;;;;5032602;28;20207;-50
2024/01/08 00:55:44;;;;;;;319.87;45.63;;;;;;;;;;5023585;28;20480;-50
2024/01/08 00:58:10;;;;;;;228.40;31.33;;;;;;;;;;5029610;28;20223;-50
2024/01/08 01:00:36;;;;;;;210.80;29.10;;;;;;;;;;5031588;28;20220;-50
2024/01/08 01:03:02;;;;;;;233.93;32.93;;;;;;;;;;5034232;28;20210;-50
2024/01/08 01:05:28;;;;;;;220.17;30.80;;;;;;;;;;5030576;28;20223;-50
2024/01/08 01:07:54;;;;;;;324.33;46.77;;;;;;;;;;5032514;28;20649;-50
2024/01/08 01:10:20;;;;;;;287.67;40.90;;;;;;;;;;5034455;28;20571;-50
2024/01/08 01:12:46;;;;;;;259.47;34.70;;;;;;;;;;5035111;28;20630;-50
2024/01/08 01:15:12;;;;;;;289.13;40.53;;;;;;;;;;5031473;28;20215;-50
2024/01/08 01:17:38;;;;;;;183.97;25.10;;;;;;;;;;5037273;28;20215;-50
2024/01/08 01:20:05;;;;;;;232.63;32.33;;;;;;;;;;5032818;28;20192;-50
2024/01/08 01:22:31;;;;;;;241.17;34.47;;;;;;;;;;5035999;28;20180;-50
2024/01/08 01:24:57;;;;;;;225.50;31.20;;;;;;;;;;5030781;28;20238;-50
2024/01/08 01:27:22;;;;;;;285.23;40.23;;;;;;;;;;5031141;28;20361;-51
2024/01/08 01:29:48;;;;;;;253.57;34.30;;;;;;;;;;5030560;28;20211;-50
2024/01/08 01:32:14;;;;;;;195.97;27.63;;;;;;;;;;5027725;28;20189;-50
2024/01/08 01:34:40;;;;;;;229.63;30.80;;;;;;;;;;5033299;28;20324;-50
2024/01/08 01:37:06;;;;;;;210.90;29.20;;;;;;;;;;5036094;28;20215;-50
2024/01/08 01:39:33;;;;;;;357.10;51.10;;;;;;;;;;5027783;28;20207;-50
2024/01/08 01:41:59;;;;;;;244.60;33.47;;;;;;;;;;5027156;28;20487;-50
2024/01/08 01:44:24;;;;;;;318.43;47.80;;;;;;;;;;5010381;28;20219;-50
2024/01/08 01:46:51;;;;;;;218.77;29.40;;;;;;;;;;5035062;28;20605;-51
2024/01/08 01:49:18;;;;;;;230.13;30.80;;;;;;;;;;5030453;28;20261;-50
2024/01/08 01:51:45;;;;;;;232.57;31.27;;;;;;;;;;5031258;28;20223;-50
2024/01/08 01:54:15;;;;;;;246.97;35.67;;;;;;;;;;5029500;28;20223;-50
2024/01/08 01:56:41;;;;;;;200.53;27.60;;;;;;;;;;5029880;28;20325;-50
2024/01/08 01:59:08;;;;;;;202.27;27.67;;;;;;;;;;5033931;28;20241;-50
2024/01/08 02:01:35;;;;;;;271.10;36.00;;;;;;;;;;5034980;28;20183;-51
2024/01/08 02:04:02;;;;;;;260.93;35.40;;;;;;;;;;5029347;28;20223;-50
2024/01/08 02:06:28;;;;;;;256.93;34.00;;;;;;;;;;5031581;28;20210;-50
2024/01/08 02:08:54;;;;;;;229.30;30.03;;;;;;;;;;5026001;28;20259;-50
2024/01/08 02:11:21;;;;;;;295.10;41.27;;;;;;;;;;5032840;28;20211;-50
2024/01/08 02:13:47;;;;;;;199.27;26.90;;;-7.80;99.90;;;;;;5028090;28;20191;-50
2024/01/08 02:16:14;;;;;;;280.53;38.13;;;;;;;;;;5028217;28;20218;-49
2024/01/08 02:18:40;;;;;;;197.47;25.90;;;;;;;;;;5034727;28;20243;-50
2024/01/08 02:21:06;;;;;;;264.97;35.07;;;;;;;;;;5034205;28;20219;-48
2024/01/08 02:23:33;;;;;;;286.30;38.20;;;;;;;;;;5027451;28;20226;-49
2024/01/08 02:25:59;;;;;;;236.70;31.07;;;;;;;;;;5030670;28;20539;-49
2024/01/08 02:28:25;;;;;;;250.70;35.17;;;;;;;;;;5032470;28;20194;-49
2024/01/08 02:30:51;;;;;;;213.63;28.50;;;;;;;;;;5031817;28;20211;-50
2024/01/08 02:33:17;;;;;;;305.03;42.10;;;;;;;;;;5025722;28;20223;-49
2024/01/08 02:35:43;;;;;;;187.53;24.73;;;;;;;;;;5033177;28;20442;-49
2024/01/08 02:38:09;;;;;;;201.03;26.57;;;;;;;;;;5035345;28;20190;-49
2024/01/08 02:40:35;;;;;;;232.40;30.67;;;;;;;;;;5033911;28;20172;-49
2024/01/08 02:43:01;;;;;;;253.97;32.77;;;;;;;;;;5029927;28;20203;-49
2024/01/08 02:45:27;;;;;;;256.10;34.40;;;;;;;;;;5023799;28;20233;-49
2024/01/08 02:47:53;;;;;;;192.27;24.77;;;;;;;;;;5031908;28;20203;-49
2024/01/08 02:50:19;;;;;;;204.90;27.50;;;;;;;;;;5030105;28;20215;-49
2024/01/08 02:52:45;;;;;;;199.57;26.40;;;;;;;;;;5033519;28;20693;-49
2024/01/08 02:55:11;;;;;;;305.40;43.47;;;;;;;;;;5028116;28;20568;-49
2024/01/08 02:57:37;;;;;;;234.57;32.20;;;;;;;;;;5029687;28;20223;-50
2024/01/08 03:00:04;;;;;;;238.23;32.07;;;;;;;;;;5033943;28;20212;-50
2024/01/08 03:02:34;;;;;;;267.73;36.63;;;;;;;;;;5036530;28;20223;-49
2024/01/08 03:05:00;;;;;;;224.40;30.97;;;;;;;;;;5029076;28;20700;-50
2024/01/08 03:07:26;;;;;;;237.20;33.00;;;;;;;;;;5020515;28;20198;-50
2024/01/08 03:09:56;;;;;;;187.43;25.60;;;;;;;;;;5039544;28;20912;-50
2024/01/08 03:12:23;;;;;;;308.10;41.83;;;;;;;;;;5037754;28;20218;-50
2024/01/08 03:14:49;;;;;;;222.10;30.27;;;;;;;;;;5034039;28;20207;-50
2024/01/08 03:17:15;;;;;;;231.17;30.30;;;;;;;;;;5030438;28;20685;-49
2024/01/08 03:19:41;;;;;;;237.03;32.17;;;;;;;;;;5034328;28;20654;-50
2024/01/08 03:22:07;;;;;;;207.13;27.87;;;;;;;;;;5035235;28;20215;-49
2024/01/08 03:24:33;;;;;;;319.90;45.03;;;;;;;;;;5030056;28;20480;-49
2024/01/08 03:26:59;;;;;;;269.03;36.10;;;;;;;;;;5041683;28;20222;-50
2024/01/08 03:29:25;;;;;;;213.70;30.37;;;;;;;;;;5035347;28;21005;-49
2024/01/08 03:31:51;;;;;;;175.50;23.53;;;;;;;;;;5033351;28;20187;-49
2024/01/08 03:34:17;;;;;;;170.07;22.63;;;;;;;;;;5034323;28;20239;-50
2024/01/08 03:36:46;;;;;;;240.13;32.37;;;;;;;;;;5033963;28;20462;-51
2024/01/08 03:39:13;;;;;;;239.33;32.53;;;;;;;;;;5030442;28;20705;-50
2024/01/08 03:41:39;;;;;;;214.17;29.57;;;;;;;;;;5035355;28;20317;-50
2024/01/08 03:44:06;;;;;;;198.53;26.10;;;;;;;;;;5033742;28;20207;-49
2024/01/08 03:46:32;;;;;;;228.70;31.23;;;;;;;;;;5036381;28;20670;-50
2024/01/08 03:48:58;;;;;;;311.33;45.60;;;;;;;;;;5032739;28;25634;-52
2024/01/08 03:51:24;;;;;;;244.33;33.50;;;;;;;;;;5029605;28;20204;-51
2024/01/08 03:53:50;;;;;;;237.03;31.67;;;;;;;;;;5033664;28;20211;-51
2024/01/08 03:56:16;;;;;;;213.03;28.50;;;;;;;;;;5032838;28;20574;-51
2024/01/08 03:58:42;;;;;;;236.33;32.20;;;;;;;;;;5031765;28;20194;-52
2024/01/08 04:01:08;;;;;;;177.10;23.77;;;;;;;;;;5033076;28;20215;-53
2024/01/08 04:03:34;;;;;;;224.20;29.93;;;;;;;;;;5035595;28;20298;-51
2024/01/08 04:06:00;;;;;;;188.33;25.47;;;;;;;;;;5030165;28;20594;-51
2024/01/08 04:08:26;;;;;;;223.60;30.43;;;;;;;;;;5033178;28;20626;-52
2024/01/08 04:10:52;;;;;;;219.70;28.97;;;;;;;;;;5030975;28;20310;-51
2024/01/08 04:13:18;;;;;;;301.83;41.67;;;;;;;;;;5028138;28;20306;-52
2024/01/08 04:15:44;;;;;;;230.20;29.93;;;;;;;;;;5033416;28;20961;-51
2024/01/08 04:18:10;;;;;;;195.40;26.83;;;;;;;;;;5034936;28;20212;-52
2024/01/08 04:20:36;;;;;;;266.73;36.87;;;;;;;;;;5033848;28;20219;-52
2024/01/08 04:23:02;;;;;;;202.07;27.37;;;;;;;;;;5035289;28;20678;-52
2024/01/08 04:25:28;;;;;;;246.63;33.77;;;;;;;;;;5023975;28;20747;-52
2024/01/08 04:27:54;;;;;;;180.03;24.20;;;-8.40;1.00;;;;;;5036357;28;20211;-51
2024/01/08 04:30:20;;;;;;;405.57;59.50;;;;;;;;;;5026380;28;20685;-51
2024/01/08 04:32:46;;;;;;;230.90;30.87;;;;;;;;;;5033745;28;20211;-51
2024/01/08 04:35:12;;;;;;;254.93;34.60;;;;;;;;;;5034758;28;20249;-51
2024/01/08 04:37:37;;;;;;;225.40;31.73;;;;;;;;;;5034606;28;20602;-51
2024/01/08 04:40:04;;;;;;;179.27;25.90;;;;;;;;;;5032339;28;20215;-52
2024/01/08 04:42:30;;;;;;;233.13;34.67;;;;;;;;;;5031165;28;20226;-51
2024/01/08 04:44:56;;;;;;;204.20;27.00;;;;;;;;;;5031951;28;20320;-51
2024/01/08 04:47:22;;;;;;;198.10;26.73;;;;;;;;;;5030506;28;20336;-51
2024/01/08 04:49:48;;;;;;;235.67;31.03;;;;;;;;;;5032737;28;20180;-51
2024/01/08 04:52:14;;;;;;;230.80;31.10;;;;;;;;;;5031052;28;20230;-51
2024/01/08 04:54:43;;;;;;;315.80;46.77;;;;;;;;;;5023298;28;20684;-51
2024/01/08 04:57:09;;;;;;;194.90;26.03;;;;;;;;;;5029924;28;20658;-51
2024/01/08 04:59:42;;;;;;;262.97;37.57;;;;;;;;;;5037711;28;20215;-51
2024/01/08 05:02:11;;;;;;;205.73;27.80;;;;;;;;;;5030903;28;20375;-52
2024/01/08 05:04:37;;;;;;;211.63;28.80;;;;;;;;;;5029254;28;20217;-51
2024/01/08 05:07:03;;;;;;;156.73;21.83;;;;;;;;;;5033022;28;20212;-51
2024/01/08 05:09:32;;;;;;;327.70;51.37;;;;;;;;;;5024416;28;20694;-51
2024/01/08 05:11:58;;;;;;;223.57;29.47;;;;;;;;;;5034913;28;20241;-51
2024/01/08 05:14:24;;;;;;;257.20;35.17;;;;;;;;;;5034604;28;20475;-52
2024/01/08 05:16:50;;;;;;;214.97;28.20;;;;;;;;;;5034293;28;21292;-51
2024/01/08 05:19:16;;;;;;;190.27;25.50;;;;;;;;;;5034330;28;20338;-51
2024/01/08 05:21:42;;;;;;;232.97;31.50;;;;;;;;;;5031655;28;20207;-51
2024/01/08 05:24:08;;;;;;;251.47;35.70;;;;;;;;;;5022743;28;20323;-51
2024/01/08 05:26:34;;;;;;;241.43;33.60;;;;;;;;;;5031802;28;20219;-51
2024/01/08 05:29:00;;;;;;;195.13;25.70;;;;;;;;;;5037150;28;20712;-51
2024/01/08 05:31:26;;;;;;;326.60;46.80;;;;;;;;;;5031932;28;20281;-51
2024/01/08 05:33:52;;;;;;;206.27;27.43;;;;;;;;;;5033515;28;20219;-51
2024/01/08 05:36:18;;;;;;;235.83;31.90;;;;;;;;;;5032748;28;20517;-51
2024/01/08 05:38:44;;;;;;;193.80;25.77;;;;;;;;;;5032036;28;20821;-51
2024/01/08 05:41:10;;;;;;;206.17;28.37;;;;;;;;;;5032575;28;20179;-51
2024/01/08 05:43:39;;;;;;;199.93;27.87;;;;;;;;;;5035022;28;20321;-52
2024/01/08 05:46:09;;;;;;;240.83;31.83;;;;;;;;;;5026602;28;20273;-51
2024/01/08 05:48:37;;;;;;;265.43;35.97;;;;;;;;;;5027106;28;20242;-51
2024/01/08 05:51:08;;;;;;;177.20;23.60;;;;;;;;;;5033686;28;20298;-52
2024/01/08 05:53:34;;;;;;;241.63;32.43;;;;;;;;;;5026717;28;20223;-51
2024/01/08 05:56:00;;;;;;;229.43;30.40;;;;;;;;;;5028418;28;20214;-51
2024/01/08 05:58:26;;;;;;;210.63;29.00;;;;;;;;;;5029795;28;20192;-51
2024/01/08 06:00:57;;;;;;;146.30;19.57;;;;;;;;;;5037801;28;20215;-50
2024/01/08 06:03:23;;;;;;;205.73;26.80;;;;;;;;;;5037022;28;20697;-50
2024/01/08 06:05:49;;;;;;;248.90;34.20;;;;;;;;;;5032023;28;20215;-51
2024/01/08 06:08:15;;;;;;;268.57;35.97;;;;;;;;;;5029766;28;20481;-51
2024/01/08 06:10:41;;;;;;;198.13;26.37;;;;;;;;;;5035246;28;20183;-50
2024/01/08 06:13:09;;;;;;;248.87;33.43;;;;;;;;;;5030330;28;20211;-51
2024/01/08 06:15:35;;;;;;;198.03;26.57;;;;;;;;;;5030506;28;20219;-52
2024/01/08 06:18:01;;;;;;;370.20;54.50;;;;;;;;;;5023156;28;20651;-51
2024/01/08 06:20:27;;;;;;;245.83;34.10;;;;;;;;;;5010439;28;20559;-50
2024/01/08 06:22:53;;;;;;;193.27;25.57;;;;;;;;;;5027786;28;20190;-55
2024/01/08 06:25:19;;;;;;;283.27;41.03;;;;;;;;;;5020789;28;20247;-51
2024/01/08 06:27:45;;;;;;;253.83;34.20;;;;;;;;;;5029074;28;20246;-50
2024/01/08 06:30:11;;;;;;;227.97;31.43;;;;;;;;;;5023195;28;20258;-51
2024/01/08 06:32:38;;;;;;;198.33;26.90;;;;;;;;;;5029339;28;20554;-51
2024/01/08 06:35:04;;;;;;;188.80;27.10;;;;;;;;;;5022157;28;20262;-50
2024/01/08 06:37:30;;;;;;;182.13;24.67;;;;;;;;;;5024011;28;20313;-49
2024/01/08 06:39:56;;;;;;;192.00;25.83;;;;;;;;;;5028163;28;20647;-51
2024/01/08 06:42:23;;;;;;;222.50;29.37;;;;;;;;;;5029557;28;20220;-50
2024/01/08 06:44:49;;;;;;;172.63;23.23;;;;;;;;;;5022554;28;20334;-51
2024/01/08 06:47:15;;;;;;;226.67;30.67;;;;;;;;;;5026780;28;24798;-51
2024/01/08 06:49:41;;;;;;;247.80;34.87;;;;;;;;;;5032546;28;20195;-51
2024/01/08 06:52:08;;;;;;;259.87;35.97;;;;;;;;;;5023880;28;20267;-51
2024/01/08 06:54:34;;;;;;;199.10;26.90;;;;;;;;;;5029225;28;20411;-51
2024/01/08 06:57:00;;;;;;;215.83;29.30;;;;;;;;;;5025725;28;20218;-51
2024/01/08 06:59:26;;;;;;;233.50;32.13;;;;;;;;;;5027231;28;20744;-51
2024/01/08 07:01:52;;;;;;;191.17;25.80;;;;;;;;;;5033255;28;20276;-51
2024/01/08 07:04:18;;;;;;;258.47;35.23;;;;;;;;;;5022770;28;20219;-52
2024/01/08 07:06:45;;;;;;;266.90;36.77;;;;;;;;;;5026507;28;20216;-52
2024/01/08 07:09:11;;;;;;;221.33;29.93;;;;;;;;;;5019862;28;20357;-52
2024/01/08 07:11:37;;;;;;;237.90;33.20;;;;;;;;;;5021710;28;20223;-52
2024/01/08 07:14:03;;;;;;;229.93;31.77;;;;;;;;;;5028501;28;20247;-52
2024/01/08 07:16:29;;;;;;;201.73;27.70;;;;;;;;;;5026377;28;20222;-51
2024/01/08 07:18:55;;;;;;;272.87;38.43;;;;;;;;;;5017539;28;20620;-52
2024/01/08 07:21:22;;;;;;;212.63;27.37;;;;;;;;;;5024295;28;20223;-53
2024/01/08 07:23:50;;;;;;;255.30;33.90;;;;;;;;;;5015906;28;20250;-52
2024/01/08 07:26:16;;;;;;;248.37;31.33;;;;;;;;;;5024476;28;20253;-52
2024/01/08 07:28:46;;;;;;;283.27;38.03;;;;;;;;;;5032662;28;20183;-52
2024/01/08 07:31:12;;;;;;;266.40;34.13;;;;;;;;;;5025628;28;20220;-52
2024/01/08 07:33:41;;;;;;;450.47;63.07;;;;;;;;;;5019975;28;20757;-52
2024/01/08 07:36:07;;;;;;;214.70;29.63;;;;;;;;;;5023639;28;20219;-52
2024/01/08 07:38:33;;;;;;;191.43;26.40;;;;;;;;;;5038118;28;20306;-52
2024/01/08 07:41:00;;;;;;;185.97;25.70;;;;;;;;;;5041482;28;20206;-52
2024/01/08 07:43:26;;;;;;;207.40;28.13;;;;;;;;;;5038336;28;20231;-52
2024/01/08 07:45:52;;;;;;;215.73;30.23;;;;;;;;;;5027119;28;20219;-52
2024/01/08 07:48:18;;;;;;;236.50;32.27;;;;;;;;;;5033209;28;20226;-52
2024/01/08 07:50:45;;;;;;;229.43;30.73;;;;;;;;;;5034904;28;20216;-52
2024/01/08 07:53:11;;;;;;;185.10;25.30;;;;;;;;;;5030955;28;20200;-52
2024/01/08 07:55:37;;;;;;;241.77;34.50;;;;;;;;;;5022251;28;20251;-52
2024/01/08 07:58:03;;;;;;;247.20;34.17;;;;;;;;;;5035909;28;20224;-52
2024/01/08 08:00:29;;;;;;;185.87;24.97;;;;;;;;;;5036075;28;20702;-52
2024/01/08 08:02:55;;;;;;;198.70;26.23;;;;;;;;;;5034566;28;20219;-52
2024/01/08 08:05:21;;;;;;;298.60;41.83;;;;;;;;;;5026525;28;20405;-53
2024/01/08 08:07:49;;;;;;;316.33;42.03;;;;;;;;;;5028404;28;21322;-53
2024/01/08 08:10:15;;;;;;;187.23;25.07;;;;;;;;;;5025891;28;20222;-52
2024/01/08 08:12:41;;;;;;;212.30;29.37;;;;;;;;;;5038687;28;20203;-53
2024/01/08 08:15:08;;;;;;;231.50;34.03;;;;;;;;;;5037329;28;20258;-53
2024/01/08 08:17:34;;;;;;;191.37;26.80;;;;;;;;;;5037157;28;20994;-53
2024/01/08 08:20:00;;;;;;;178.20;24.37;;;;;;;;;;5028277;28;20278;-53
2024/01/08 08:22:26;;;;;;;203.30;27.50;;;;;;;;;;5033477;28;20603;-53
2024/01/08 08:24:52;;;;;;;218.67;30.83;;;;;;;;;;5032379;28;20658;-52
2024/01/08 08:27:18;;;;;;;170.20;23.43;;;;;;;;;;5032341;28;20230;-53
2024/01/08 08:29:45;;;;;;;218.87;30.27;;;;;;;;;;5029808;28;20215;-52
2024/01/08 08:32:11;;;;;;;187.30;26.23;;;;;;;;;;5034306;28;20175;-53
2024/01/08 08:34:39;;;;;;;276.07;40.60;;;;;;;;;;5006622;28;20215;-53
2024/01/08 08:37:07;;;;;;;241.90;34.80;;;;;;;;;;5029943;28;20756;-53
2024/01/08 08:39:33;;;;;;;220.97;30.77;;;;;;;;;;5026765;28;20252;-53
2024/01/08 08:41:59;;;;;;;212.13;30.33;;;;;;;;;;5026846;28;20211;-53
2024/01/08 08:44:25;;;;;;;222.03;30.67;;;;;;;;;;5035717;28;20285;-53
2024/01/08 08:46:51;;;;;;;249.13;35.03;;;;;;;;;;5036322;28;20271;-53
2024/01/08 08:49:17;;;;;;;222.70;30.60;;;;;;;;;;5028503;28;20219;-53
2024/01/08 08:51:43;;;;;;;261.20;37.17;;;;;;;;;;5028827;28;20246;-53
2024/01/08 08:54:09;;;;;;;218.40;30.90;;;;;;;;;;5027490;28;20261;-52
2024/01/08 08:56:36;;;;;;;201.53;27.43;;;;;;;;;;5024602;28;20629;-53
2024/01/08 08:59:02;;;;;;;190.17;26.00;;;;;;;;;;5032212;28;20262;-53
2024/01/08 09:01:28;;;;;;;200.77;27.73;;;;;;;;;;5032989;28;20186;-53
2024/01/08 09:03:54;;;;;;;248.53;34.10;;;;;;;;;;5030123;28;20216;-52
2024/01/08 09:06:23;;;;;;;268.67;37.17;;;;;;;;;;5033280;28;20227;-52
2024/01/08 09:08:50;;;;;;;275.30;39.13;;;;;;;;;;5026083;28;20836;-52
2024/01/08 09:11:16;;;;;;;181.30;25.97;;;;;;;;;;5027820;28;20306;-52
2024/01/08 09:13:42;;;;;;;263.57;38.03;;;;;;;;;;5031205;28;20190;-53
2024/01/08 09:16:10;;;;;;;245.27;37.87;;;;;;;;;;5028327;28;20638;-53
2024/01/08 09:18:36;;;;;;;231.20;32.03;;;;;;;;;;5025068;28;20242;-52
2024/01/08 09:21:02;;;;;;;179.07;24.83;;;;;;;;;;5030480;28;20211;-52
2024/01/08 09:23:28;;;;;;;193.17;26.70;;;;;;;;;;5032176;28;20258;-52
2024/01/08 09:28:57;;;;;;;180.83;25.37;;;-6.60;99.90;;;;;;5035117;28;20190;-52
2024/01/08 09:31:23;;;;;;;221.33;32.00;;;;;;;;;;5026350;28;20179;-52
2024/01/08 09:33:51;;;;;;;231.83;32.40;;;;;;;;;;5028503;28;20215;-52
2024/01/08 09:36:17;;;;;;;260.17;37.87;;;;;;;;;;5031101;28;20714;-51
2024/01/08 09:38:46;;;;;;;219.97;32.80;;;-6.40;99.90;;;;;;5028920;28;21012;-51
2024/01/08 09:41:12;;;;;;;208.63;28.83;;;;;;;;;;5027613;28;20628;-52
2024/01/08 09:43:39;;;;;;;220.03;31.00;;;;;;;;;;5030993;28;20245;-51
2024/01/08 09:46:10;;;;;;;158.17;22.20;;;;;;;;;;5044667;28;20605;-48
2024/01/08 09:48:36;;;;;;;165.17;22.73;;;;;;;;;;5047480;28;20221;-48
2024/01/08 09:51:02;;;;;;;135.53;18.63;;;;;;;;;;5047858;28;20299;-49
2024/01/08 09:53:29;;;;;;;159.50;22.33;;;;;;;;;;5047913;28;20570;-49
2024/01/08 09:55:55;;;;;;;160.23;22.40;;;;;;;;;;5048727;28;20199;-50
2024/01/08 09:58:21;;;;;;;172.80;23.70;;;;;;;;;;5047747;28;20690;-49
2024/01/08 10:00:46;;;;;;;165.17;22.53;;;;;;;;;;5047625;28;20220;-49
2024/01/08 10:03:13;;;;;;;167.17;22.93;;;;;;;;;;5047599;28;20628;-49
2024/01/08 10:05:39;;;;;;;163.73;23.07;;;;;;;;;;5047676;28;20211;-49
2024/01/08 10:08:06;;;;;;;170.03;24.00;;;;;;;;;;5046916;28;20175;-49
2024/01/08 10:10:32;;;;;;;160.43;22.23;;;;;;;;;;5048259;28;20542;-49
2024/01/08 10:12:59;;;;;;;194.73;27.17;;;;;;;;;;5047165;28;20215;-49
2024/01/08 10:15:25;;;;;;;169.17;23.80;;;;;;;;;;5047728;28;20305;-49
2024/01/08 10:17:51;;;;;;;173.70;24.67;;;;;;;;;;5047675;28;20868;-50
2024/01/08 10:20:17;;;;;;;170.20;24.57;;;;;;;;;;5047543;28;20219;-49
2024/01/08 10:22:45;;;;;;;144.20;20.83;;;;;;;;;;5048263;28;20175;-49
2024/01/08 10:25:11;;;;;;;145.93;22.20;;;;;;;;;;5047627;28;20223;-50
2024/01/08 10:27:37;;;;;;;143.33;20.33;;;;;;;;;;5048135;28;20267;-49
2024/01/08 10:30:03;;;;;;;158.87;23.20;;;;;;;;;;5047653;28;20215;-49
2024/01/08 10:32:29;;;;;;;159.90;22.37;;;;;;;;;;5047542;28;20306;-49
2024/01/08 10:34:58;;;;;;;157.20;22.93;;;;;;;;;;5048122;28;20286;-51
2024/01/08 10:37:25;;;;;;;136.27;19.77;;;;;;;;;;5047754;28;20589;-50
2024/01/08 10:39:51;;;;;;;148.03;21.07;;;;;;;;;;5047833;28;20223;-50
2024/01/08 10:42:17;;;;;;;150.87;21.10;;;;;;;;;;5047538;28;20227;-50
2024/01/08 10:44:43;;;;;;;158.30;22.17;;;;;;;;;;5047214;28;20314;-47
2024/01/08 10:47:10;;;;;;;153.23;21.63;;;;;;;;;;5047623;28;20657;-48
2024/01/08 10:49:36;;;;;;;169.23;24.73;;;;;;;;;;5047905;28;20175;-48
2024/01/08 10:52:24;;;;;;;172.27;24.67;;;;;;;;;;5047456;28;20215;-48
2024/01/08 10:54:51;;;;;;;173.37;24.50;;;;;;;;;;5047622;28;20278;-48
2024/01/08 10:57:18;;;;;;;168.47;23.67;;;;;;;;;;5047484;28;20231;-49
2024/01/08 10:59:45;;;;;;;147.87;20.70;;;;;;;;;;5047585;28;20212;-48
2024/01/08 11:02:14;;;;;;;178.77;24.90;;;;;;;;;;5047514;28;20176;-48
2024/01/08 11:04:42;;;;;;;176.47;24.70;;;;;;;;;;5047585;28;20216;-49
2024/01/08 11:07:09;;;;;;;152.07;21.60;;;;;;;;;;5047363;28;20265;-49
2024/01/08 11:09:35;;;;;;;153.40;21.80;;;;;;;;;;5047352;28;20219;-49
2024/01/08 11:12:02;;;;;;;151.93;21.60;;;;;;;;;;5047216;28;20211;-49
2024/01/08 11:14:29;;;;;;;160.73;23.43;;;-4.80;99.90;;;;;;5042282;28;20235;-49
2024/01/08 11:16:56;;;;;;;154.23;22.07;;;;;;;;;;5035437;28;20211;-49
2024/01/08 11:19:21;;;;;;;150.07;21.37;;;;;;;;;;5047461;28;20226;-49
2024/01/08 11:21:56;;;;;;;158.73;22.57;;;;;;;;;;5049731;28;20238;-49
2024/01/08 11:24:23;;;;;;;169.60;23.60;;;;;;;;;;5050572;28;20778;-49
2024/01/08 11:26:51;;;;;;;178.17;25.23;;;;;;;;;;5049580;28;20306;-49
2024/01/08 11:29:17;;;;;;;164.87;23.50;;;;;;;;;;5049051;28;20598;-49
2024/01/08 11:31:58;;;;;;;160.90;22.47;;;-4.30;39.90;;;;;;5049512;28;20318;-49
2024/01/08 11:34:42;;;;;;;153.17;22.13;;;;;;;;;;5050712;28;20215;-49
2024/01/08 11:37:26;;;;;;;127.30;17.83;;;;;;;;;;5050797;28;20215;-49
2024/01/08 11:39:54;;;;;;;136.83;19.50;;;;;;;;;;5050024;28;20243;-49
2024/01/08 11:42:21;;;;;;;129.83;18.60;;;;;;;;;;5050698;28;20223;-49
2024/01/08 11:44:47;;;;;;;142.37;19.90;;;;;;;;;;5050442;28;20227;-49
2024/01/08 11:47:13;;;;;;;163.77;23.43;;;;;;;;;;5050477;28;20229;-49
2024/01/08 11:49:40;;;;;;;154.13;22.20;;;;;;;;;;5050590;28;20576;-49
2024/01/08 11:52:08;;;;;;;131.20;20.43;;;;;;;;;;5050331;28;20222;-49
2024/01/08 11:54:34;;;;;;;164.83;25.17;;;;;;;;;;5050391;28;20563;-49
2024/01/08 11:57:01;;;;;;;144.77;22.20;;;;;;;;;;5050449;28;20273;-50
2024/01/08 11:59:34;;;;;;;166.90;24.27;;;;;;;;;;5050158;28;20226;-49
2024/01/08 12:02:19;;;;;;;178.70;26.20;;;;;;;;;;5050222;28;20588;-49
2024/01/08 12:04:55;;;;;;;164.27;23.67;;;-2.90;1.00;;;;;;5050475;28;20211;-51
2024/01/08 12:07:22;;;;;;;156.93;23.07;;;;;;;;;;5050073;28;20622;-49
2024/01/08 12:09:49;;;;;;;160.40;23.63;;;;;;;;;;5049901;28;20219;-49
2024/01/08 12:12:18;;;;;;;176.03;25.77;;;;;;;;;;5049644;28;20214;-49
2024/01/08 12:14:45;;;;;;;167.87;25.10;;;;;;;;;;5049606;28;20215;-50
2024/01/08 12:17:12;;;;;;;157.23;23.47;;;;;;;;;;5061207;28;20236;-49
2024/01/08 12:19:41;;;;;;;175.33;25.70;;;;;;;;;;5066652;28;20176;-49
2024/01/08 12:22:09;;;;;;;172.10;25.57;;;;;;;;;;5049981;28;20293;-49
2024/01/08 12:24:35;;;;;;;163.33;23.73;;;;;;;;;;5049411;28;20246;-49
2024/01/08 12:27:04;;;;;;;163.90;24.83;;;;;;;;;;5049429;28;20220;-49
2024/01/08 12:29:31;;;;;;;171.83;24.77;;;;;;;;;;5049325;28;20235;-49
2024/01/08 12:31:58;;;;;;;167.93;24.47;;;;;;;;;;5048569;28;20258;-49
2024/01/08 12:34:27;;;;;;;167.03;25.13;;;;;;;;;;5049796;28;20203;-50
2024/01/08 12:36:53;;;;;;;184.20;27.53;;;;;;;;;;5049274;28;20215;-49
2024/01/08 12:39:19;;;;;;;159.97;24.33;;;;;;;;;;5049236;28;20719;-49
2024/01/08 12:41:45;;;;;;;171.67;26.43;;;;;;;;;;5049351;28;20223;-50
2024/01/08 12:44:12;;;;;;;163.07;26.20;;;;;;;;;;5048660;28;20229;-49
2024/01/08 12:46:39;;;;;;;158.07;26.07;;;1.10;1.00;;;;;;5049835;28;20164;-50
2024/01/08 12:49:05;;;;;;;154.30;26.37;;;1.80;99.90;;;;;;5049112;28;20223;-50
2024/01/08 12:51:31;;;;;;;170.27;28.70;;;;;;;;;;5049087;28;20211;-50
2024/01/08 12:53:57;;;;;;;155.20;26.33;;;;;;;;;;5048836;28;20446;-50
2024/01/08 12:56:23;;;;;;;134.70;23.40;;;;;;;;;;5048877;28;20222;-50
2024/01/08 12:58:49;;;;;;;135.67;25.13;;;4.10;1.00;;;;;;5049408;28;20176;-50
2024/01/08 13:01:15;;;;;;;149.53;26.27;;;;;;;;;;5048975;28;20782;-50
2024/01/08 13:03:41;;;;;;;147.63;26.40;;;;;;;;;;5048723;28;20590;-51
2024/01/08 13:06:07;;;;;;;150.97;27.83;;;;;;;;;;5048933;28;20223;-50
2024/01/08 13:08:35;;;;;;;154.00;27.73;;;;;;;;;;5048996;28;20230;-50
2024/01/08 13:11:01;;;;;;;142.77;27.27;;;4.60;1.00;;;;;;5048771;28;20229;-50
2024/01/08 13:13:26;;;;;;;175.53;33.10;;;5.50;66.00;;;;;;5049256;28;20179;-51
2024/01/08 13:15:52;;;;;;;160.27;30.10;;;;;;;;;;5048735;28;20230;-51
2024/01/08 13:18:18;;;;;;;151.10;30.07;;;;;;;;;;5048536;28;20242;-50
2024/01/08 13:20:44;;;;;;;151.70;33.97;;;5.80;99.90;;;;;;5048844;28;20215;-51
2024/01/08 13:23:10;;;;;;;152.20;37.70;;;;;;;;;;5048466;28;20649;-51
2024/01/08 13:25:36;;;;;;;154.93;40.13;;;;;;;;;;5048732;28;20678;-51
2024/01/08 13:28:01;;;;;;;134.77;31.63;;;;;;;;;;5048424;28;20310;-50
2024/01/08 13:30:29;;;;;;;208.27;92.60;;;;;;;;;;5048337;28;21118;-50
2024/01/08 13:32:55;;;;;;;401.47;164.63;;;;;;;;;;5048252;28;20712;-51
2024/01/08 13:35:21;;;;;;;406.17;163.07;;;;;;;;;;5048539;28;20220;-49
2024/01/08 13:37:48;;;;;;;413.20;164.00;;;;;;;;;;5048965;28;20589;-51
2024/01/08 13:40:14;;;;;;;407.33;160.60;;;;;;;;;;5048265;28;20318;-51
2024/01/08 13:42:40;;;;;;;390.37;155.40;;;;;;;;;;5048067;28;20215;-51
2024/01/08 13:45:08;;;;;;;379.57;156.67;;;;;;;;;;5047595;28;20227;-50
2024/01/08 13:47:34;;;;;;;371.47;144.40;;;;;;;;;;5048192;28;20239;-50
2024/01/08 13:50:00;;;;;;;287.37;118.60;;;;;;;;;;5048201;28;20172;-50
2024/01/08 13:52:27;;;;;;;229.37;95.43;;;;;;;;;;5048470;28;20175;-50
2024/01/08 13:54:53;;;;;;;184.27;72.10;;;;;;;;;;5047968;28;20590;-51
2024/01/08 13:57:19;;;;;;;191.73;67.93;;;;;;;;;;5048092;28;20219;-50
2024/01/08 13:59:45;;;;;;;160.43;41.77;;;;;;;;;;5048130;28;20216;-50